Time;durP1;ratioP1;P1;durP2;ratioP2;P2;SDS_P1;SDS_P2;PMS_P1;PMS_P2;Temp;Humidity;BMP_temperature;BMP_pressure;BME280_temperature;BME280_humidity;BME280_pressure;Samples;Min_cycle;Max_cycle;Signal;HPM_P1;HPM_P2
2022/05/07 04:22:34;;;;;;;10.68;6.45;;;;;;;6.25;100.00;100897.84;5113281;27;20140;-78
2022/05/07 04:25:00;;;;;;;11.63;6.03;;;;;;;6.33;100.00;100899.88;5091973;28;20040;-76
2022/05/07 04:27:26;;;;;;;10.65;6.22;;;;;;;6.36;100.00;100896.97;5107988;28;20032;-76
2022/05/07 04:29:57;;;;;;;15.20;7.03;;;;;;;6.33;100.00;100905.19;5091582;28;20040;-76
2022/05/07 04:32:24;;;;;;;8.95;6.28;;;;;;;6.27;100.00;100890.66;5091431;28;20452;-74
2022/05/07 04:34:57;;;;;;;8.35;5.70;;;;;;;6.35;100.00;100900.59;5107877;28;20104;-75
2022/05/07 04:37:25;;;;;;;10.10;6.18;;;;;;;6.35;100.00;100900.59;5092028;28;20111;-75
2022/05/07 04:39:52;;;;;;;9.23;5.00;;;;;;;6.36;100.00;100902.25;5107957;28;20131;-75
2022/05/07 04:42:18;;;;;;;9.90;5.30;;;;;;;6.44;100.00;100902.44;5107481;28;20035;-75
2022/05/07 04:44:49;;;;;;;10.82;6.38;;;;;;;6.40;100.00;100890.44;5091731;28;20055;-75
2022/05/07 04:47:21;;;;;;;8.75;5.72;;;;;;;6.54;100.00;100903.34;5107773;28;20032;-75
2022/05/07 04:49:47;;;;;;;9.50;4.93;;;;;;;6.56;100.00;100904.03;5090802;28;20044;-75
2022/05/07 04:52:13;;;;;;;8.32;5.55;;;;;;;6.62;100.00;100897.38;5107397;28;20110;-75
2022/05/07 04:54:41;;;;;;;9.77;5.40;;;;;;;6.66;100.00;100891.69;5107677;28;20059;-74
2022/05/07 04:57:07;;;;;;;10.55;6.10;;;;;;;6.72;100.00;100898.28;5107446;28;20101;-75
2022/05/07 04:59:40;;;;;;;8.27;5.10;;;;;;;6.85;100.00;100906.84;5107825;28;20081;-75
2022/05/07 05:02:10;;;;;;;6.93;5.15;;;;;;;6.92;100.00;100904.50;5107350;28;20504;-75
2022/05/07 05:04:36;;;;;;;11.88;5.20;;;;;;;7.04;100.00;100911.34;5091032;28;20032;-76
2022/05/07 05:07:08;;;;;;;9.27;5.13;;;;;;;7.14;100.00;100916.69;5107528;28;20061;-75
2022/05/07 05:09:35;;;;;;;8.13;5.28;;;;;;;7.20;100.00;100905.56;5107435;28;20077;-75
2022/05/07 05:12:08;;;;;;;10.68;5.80;;;;;;;7.31;100.00;100911.59;5091027;28;20039;-75
2022/05/07 05:17:29;;;;;;;10.27;5.63;;;;;;;7.47;100.00;100908.41;5093776;28;20036;-75
2022/05/07 05:19:56;;;;;;;9.00;5.43;;;;;;;7.61;100.00;100908.00;5107143;28;20096;-75
2022/05/07 05:22:21;;;;;;;8.68;5.63;;;;;;;7.69;100.00;100907.28;5089738;28;20027;-75
2022/05/07 05:24:47;;;;;;;8.98;5.57;;;;;;;7.83;100.00;100914.88;5107249;28;20036;-74
2022/05/07 05:27:13;;;;;;;8.88;5.72;;;;;;;7.95;100.00;100914.72;5107044;28;20031;-75
2022/05/07 05:29:44;;;;;;;8.63;5.45;;;;;;;8.06;100.00;100912.75;5106964;28;20322;-74
2022/05/07 05:32:19;;;;;;;9.43;5.40;;;;;;;8.17;100.00;100917.09;5086055;28;20081;-74
2022/05/07 05:34:53;;;;;;;8.52;5.82;;;;;;;8.29;100.00;100915.13;5093277;28;20040;-75
2022/05/07 05:37:23;;;;;;;8.43;5.80;;;;;;;8.43;100.00;100920.84;5093307;28;20040;-75
2022/05/07 05:39:49;;;;;;;9.43;5.60;;;;;;;8.43;100.00;100909.38;5076623;28;20377;-76
2022/05/07 05:42:15;;;;;;;11.40;5.50;;;;;;;8.60;100.00;100918.41;5092855;28;20485;-75
2022/05/07 05:44:42;;;;;;;9.02;4.97;;;;;;;8.70;100.00;100927.19;5093257;28;20059;-75
2022/05/07 05:47:13;;;;;;;6.25;4.88;;;;;;;8.80;100.00;100924.50;5093008;28;20044;-75
2022/05/07 05:49:40;;;;;;;12.20;5.20;;;;;;;8.89;100.00;100923.66;5076574;28;20118;-76
2022/05/07 05:52:07;;;;;;;7.88;5.13;;;;;;;9.00;100.00;100930.56;5075869;28;20104;-75
2022/05/07 05:54:35;;;;;;;9.07;5.72;;;;;;;9.12;100.00;100929.41;5092872;28;20032;-75
2022/05/07 05:57:02;;;;;;;11.93;5.65;;;;;;;9.27;100.00;100930.63;5076172;28;20610;-75
2022/05/07 05:59:28;;;;;;;7.60;5.65;;;;;;;9.36;100.00;100932.38;5094089;28;20393;-75
2022/05/07 06:01:56;;;;;;;9.40;6.30;;;;;;;9.48;100.00;100930.34;5092624;28;20058;-75
2022/05/07 06:04:28;;;;;;;14.43;6.47;;;;;;;9.57;100.00;100928.59;5094044;28;20484;-74
2022/05/07 06:06:59;;;;;;;10.55;5.75;;;;;;;9.70;100.00;100924.59;5092817;28;20499;-73
2022/05/07 06:09:29;;;;;;;15.85;6.55;;;;;;;9.84;100.00;100928.53;5092820;28;20089;-73
2022/05/07 06:11:57;;;;;;;9.25;5.97;;;;;;;9.96;100.00;100924.66;5075397;28;20123;-73
2022/05/07 06:14:23;;;;;;;11.05;6.32;;;;;;;10.04;100.00;100923.88;5075775;28;20460;-74
2022/05/07 06:16:56;;;;;;;8.98;5.93;;;;;;;10.17;100.00;100923.50;5092377;28;20629;-73
2022/05/07 06:19:22;;;;;;;11.23;6.20;;;;;;;10.30;100.00;100926.63;5092405;28;20040;-73
2022/05/07 06:21:51;;;;;;;11.70;6.32;;;;;;;10.52;97.97;100928.81;5091911;28;20127;-73
2022/05/07 06:29:48;;;;;;;8.38;5.65;;;;;;;10.71;95.66;100932.25;5092265;28;20476;-74
2022/05/07 06:32:14;;;;;;;9.35;6.18;;;;;;;10.78;96.86;100931.47;5075410;28;20061;-74
2022/05/07 06:34:40;;;;;;;11.20;6.20;;;;;;;10.87;97.08;100941.16;5092164;28;20068;-74
2022/05/07 06:37:06;;;;;;;11.50;5.95;;;;;;;10.88;96.32;100921.50;5091893;28;20086;-74
2022/05/07 06:39:34;;;;;;;10.48;6.55;;;;;;;11.05;95.06;100933.09;5092125;28;20101;-74
2022/05/07 06:42:01;;;;;;;8.48;5.95;;;;;;;11.13;95.01;100934.97;5091632;28;20054;-74
2022/05/07 06:44:26;;;;;;;13.75;6.63;;;;;;;11.28;94.41;100941.38;5074471;28;20031;-74
2022/05/07 06:46:56;;;;;;;10.98;6.82;;;;;;;11.37;92.18;100942.22;5092050;28;20035;-75
2022/05/07 06:49:22;;;;;;;12.00;6.60;;;;;;;11.45;92.40;100939.59;5092005;28;20044;-74
2022/05/07 06:51:51;;;;;;;12.18;6.20;;;;;;;11.63;90.92;100934.97;5091580;28;20065;-74
2022/05/07 06:54:17;;;;;;;9.45;5.72;;;;;;;11.68;90.85;100930.00;5093067;28;20577;-74
2022/05/07 06:56:43;;;;;;;8.85;5.30;;;;;;;11.81;88.74;100928.72;5091714;28;20032;-74
2022/05/07 06:59:10;;;;;;;8.77;5.93;;;;;;;11.93;88.59;100930.91;5092901;28;20038;-75
2022/05/07 07:01:38;;;;;;;11.63;6.03;;;;;;;12.04;87.99;100929.72;5092733;28;20123;-74
2022/05/07 07:04:04;;;;;;;9.70;6.07;;;;;;;12.14;85.85;100940.25;5092666;28;20027;-75
2022/05/07 07:06:30;;;;;;;10.60;6.03;;;;;;;12.28;86.11;100936.91;5092853;28;20036;-75
2022/05/07 07:08:56;;;;;;;8.93;5.97;;;;;;;12.40;83.97;100935.56;5092805;28;20501;-74
2022/05/07 07:11:22;;;;;;;8.05;5.90;;;;;;;12.41;82.25;100934.56;5074380;28;20040;-74
2022/05/07 07:13:49;;;;;;;7.97;5.60;;;;;;;12.53;82.74;100939.56;5091396;28;20031;-74
2022/05/07 07:16:15;;;;;;;7.78;5.82;;;;;;;12.72;83.06;100936.53;5091385;28;20568;-72
2022/05/07 07:18:40;;;;;;;7.82;5.07;;;;;;;12.79;83.12;100937.50;5092592;28;20046;-73
2022/05/07 07:21:06;;;;;;;7.20;5.00;;;;;;;12.91;81.85;100938.81;5091161;28;20031;-73
2022/05/07 07:23:31;;;;;;;9.07;5.07;;;;;;;13.01;81.30;100935.94;5090905;28;20549;-73
2022/05/07 07:25:57;;;;;;;8.32;5.55;;;;;;;13.13;81.08;100939.91;5092273;28;20495;-73
2022/05/07 07:28:23;;;;;;;7.30;4.43;;;;;;;13.36;81.55;100936.47;5092493;28;20036;-74
2022/05/07 07:30:49;;;;;;;6.47;4.63;;;;;;;13.46;78.50;100934.44;5091146;28;20085;-75
2022/05/07 07:33:14;;;;;;;8.05;4.40;;;;;;;13.58;75.47;100923.16;5091935;28;20031;-74
2022/05/07 07:35:40;;;;;;;5.82;3.72;;;;;;;13.67;75.17;100921.25;5092235;28;20051;-73
2022/05/07 07:38:06;;;;;;;6.65;3.95;;;;;;;13.86;74.99;100922.63;5091365;28;20028;-74
2022/05/07 07:40:31;;;;;;;4.85;3.53;;;;;;;13.98;72.41;100926.56;5092185;28;20036;-74
2022/05/07 07:42:58;;;;;;;6.63;3.92;;;;;;;14.14;70.31;100930.97;5090620;28;20036;-74
2022/05/07 07:48:09;;;;;;;5.65;3.60;;;;;;;14.44;71.44;100921.16;5092103;28;20044;-74
2022/05/07 07:50:38;;;;;;;5.07;3.28;;;;;;;14.59;68.01;100919.34;5092167;28;20016;-74
2022/05/07 07:53:11;;;;;;;7.47;3.45;;;;;;;14.70;66.81;100931.50;5091721;28;20044;-74
2022/05/07 07:55:37;;;;;;;4.15;2.90;;;;;;;14.79;67.13;100924.19;5091856;28;20085;-75
2022/05/07 07:58:05;;;;;;;4.47;3.20;;;;;;;15.00;66.79;100923.47;5090722;28;20023;-74
2022/05/07 08:00:32;;;;;;;7.13;4.20;;;;;;;15.15;66.32;100924.28;5090525;28;20046;-73
2022/05/07 08:03:00;;;;;;;5.00;3.85;;;;;;;15.29;66.15;100920.75;5091579;28;20036;-74
2022/05/07 08:05:30;;;;;;;4.50;3.88;;;;;;;15.43;64.46;100916.34;5090594;28;20044;-74
2022/05/07 08:13:24;;;;;;;6.40;2.88;;;;;;;15.99;60.45;100912.03;5090773;28;20043;-73
2022/05/07 08:15:50;;;;;;;5.75;3.92;;;;;;;16.05;59.87;100913.13;5070518;28;20047;-73
2022/05/07 08:18:16;;;;;;;5.65;2.78;;;;;;;16.32;59.99;100910.66;5091849;28;20043;-73
2022/05/07 08:20:43;;;;;;;6.18;3.20;;;;;;;16.45;60.04;100911.59;5091623;28;20028;-74
2022/05/07 08:23:10;;;;;;;4.32;3.05;;;;;;;16.64;57.70;100911.94;5091470;28;20085;-74
2022/05/07 08:25:36;;;;;;;4.28;2.63;;;;;;;16.78;59.69;100906.47;5091764;28;20157;-74
2022/05/07 08:28:02;;;;;;;4.95;3.20;;;;;;;16.93;56.44;100898.25;5090708;28;20059;-74
2022/05/07 08:30:28;;;;;;;4.00;2.92;;;;;;;17.02;57.17;100907.03;5091893;28;20036;-73
2022/05/07 08:32:53;;;;;;;5.57;3.15;;;;;;;17.23;56.37;100911.47;5090457;28;20401;-74
2022/05/07 08:35:20;;;;;;;6.55;3.45;;;;;;;17.34;55.82;100905.47;5091728;28;20119;-73
2022/05/07 08:37:46;;;;;;;4.78;2.75;;;;;;;17.46;56.56;100898.47;5091787;28;20051;-73
2022/05/07 08:40:16;;;;;;;5.93;2.70;;;;;;;17.67;56.22;100900.22;5091617;28;20032;-73
2022/05/07 08:42:42;;;;;;;4.38;3.20;;;;;;;17.84;54.39;100900.69;5090184;28;20044;-74
2022/05/07 08:45:14;;;;;;;6.50;3.28;;;;;;;17.83;54.36;100904.41;5091605;28;20044;-75
2022/05/07 08:47:44;;;;;;;3.60;2.67;;;;;;;17.99;53.63;100897.78;5090369;28;20043;-73
2022/05/07 08:50:13;;;;;;;7.40;2.72;;;;;;;18.16;54.11;100901.75;5091504;28;20621;-72
2022/05/07 08:52:42;;;;;;;5.65;3.00;;;;;;;18.39;54.07;100899.47;5091507;28;20395;-77
2022/05/07 08:55:12;;;;;;;4.55;2.78;;;;;;;18.61;50.89;100901.94;5090254;28;20036;-72
2022/05/07 08:57:42;;;;;;;6.45;3.53;;;;;;;18.87;53.23;100901.06;5091580;28;20403;-73
2022/05/07 09:00:09;;;;;;;5.75;2.88;;;;;;;18.98;52.46;100900.44;5091473;28;20485;-73
2022/05/07 09:02:41;;;;;;;5.35;3.25;;;;;;;19.17;52.13;100902.22;5090943;28;20497;-73
2022/05/07 09:05:08;;;;;;;3.42;2.67;;;;;;;19.28;50.85;100898.00;5091329;28;20044;-72
2022/05/07 09:07:34;;;;;;;7.15;3.40;;;;;;;19.36;50.05;100891.53;5074193;28;20069;-73
2022/05/07 09:09:59;;;;;;;4.95;3.22;;;;;;;19.47;50.38;100893.56;5095199;28;20032;-73
2022/05/07 09:12:28;;;;;;;3.00;2.47;;;;;;;19.58;50.15;100892.91;5094859;28;20083;-74
2022/05/07 09:15:01;;;;;;;3.47;2.72;;;;;;;19.81;51.55;100886.94;5095086;28;20162;-72
2022/05/07 09:17:27;;;;;;;5.47;2.90;;;;;;;20.08;50.15;100892.97;5076737;28;20040;-73
2022/05/07 09:19:53;;;;;;;6.70;3.10;;;;;;;20.29;48.25;100884.50;5095052;28;20127;-72
2022/05/07 09:22:19;;;;;;;3.88;2.42;;;;;;;20.41;46.31;100878.34;5094535;28;20166;-73
2022/05/07 09:24:55;;;;;;;5.25;2.92;;;;;;;20.43;45.64;100881.66;5093740;28;20514;-72
2022/05/07 09:27:25;;;;;;;6.20;2.70;;;;;;;20.63;44.66;100878.78;5094896;28;20538;-73
2022/05/07 09:30:03;;;;;;;6.07;2.80;;;;;;;20.19;43.55;100873.34;5094843;28;20028;-73
2022/05/07 09:32:36;;;;;;;5.78;4.00;;;;;;;20.76;43.57;100874.06;5094454;28;20028;-72
2022/05/07 09:38:01;;;;;;;5.93;3.47;;;;;;;20.92;43.79;100866.38;5093702;28;20543;-72
2022/05/07 09:40:30;;;;;;;5.20;3.38;;;;;;;21.48;42.57;100868.00;5094576;28;20485;-73
2022/05/07 09:42:59;;;;;;;3.65;2.92;;;;;;;21.26;40.64;100873.06;5093024;28;20127;-73
2022/05/07 09:45:26;;;;;;;3.95;3.05;;;;;;;21.70;40.46;100863.69;5094446;28;20066;-73
2022/05/07 09:47:56;;;;;;;3.97;2.63;;;;;;;22.12;39.71;100866.41;5094691;28;20036;-73
2022/05/07 09:58:34;;;;;;;6.88;2.70;;;;;;;22.92;39.81;100861.19;5094586;28;20043;-74
2022/05/07 10:01:15;;;;;;;27.95;3.83;;;;;;;23.26;36.73;100864.03;5094720;28;20024;-70
2022/05/07 10:04:21;;;;;;;5.53;2.30;;;;;;;23.53;36.66;100865.09;5094548;28;20028;-70
2022/05/07 10:07:06;;;;;;;3.47;1.80;;;;;;;23.54;34.34;100861.34;5094948;28;20020;-79
2022/05/07 10:10:11;;;;;;;3.97;2.20;;;;;;;23.79;34.20;100854.69;5095917;28;20532;-79
2022/05/07 10:12:37;;;;;;;3.80;2.50;;;;;;;24.19;34.70;100859.16;5094280;28;20028;-78
2022/05/07 10:15:08;;;;;;;4.60;2.38;;;;;;;24.01;34.58;100852.09;5095690;28;20403;-76
2022/05/07 10:17:35;;;;;;;3.65;2.20;;;;;;;24.42;35.59;100850.03;5093987;28;20545;-78
2022/05/07 10:20:13;;;;;;;4.82;2.83;;;;;;;24.61;33.73;100846.75;5094040;28;20477;-80
2022/05/07 10:22:39;;;;;;;4.17;2.60;;;;;;;24.84;34.04;100840.25;5096728;28;20077;-77
2022/05/07 10:25:05;;;;;;;5.22;1.98;;;;;;;24.28;32.60;100852.25;5095743;28;20051;-77
2022/05/07 10:27:33;;;;;;;3.00;2.05;;;;;;;24.78;31.88;100845.91;5094160;28;20028;-79
2022/05/07 10:30:16;;;;;;;2.50;1.90;;;;;;;24.38;31.86;100844.25;5095738;28;20428;-78
2022/05/07 10:32:54;;;;;;;6.00;2.05;;;;;;;24.90;32.67;100838.41;5094398;28;20032;-77
2022/05/07 10:35:40;;;;;;;4.32;1.85;;;;;;;24.94;30.98;100845.00;5094020;28;20042;-76
2022/05/07 10:38:07;;;;;;;5.18;2.30;;;;;;;25.23;33.13;100842.06;5092372;28;20036;-77
2022/05/07 10:40:33;;;;;;;3.25;2.15;;;;;;;25.58;30.03;100842.47;5093680;28;20036;-77
2022/05/07 10:42:59;;;;;;;4.32;2.30;;;;;;;25.49;29.77;100837.72;5092012;28;20153;-76
2022/05/07 10:45:24;;;;;;;2.55;1.40;;;;;;;25.86;28.16;100827.72;5093465;28;20039;-77
2022/05/07 10:47:57;;;;;;;5.53;1.45;;;;;;;25.95;27.95;100834.38;5092400;28;20036;-77
2022/05/07 10:50:23;;;;;;;3.47;1.40;;;;;;;26.26;26.32;100829.09;5094036;28;20036;-77
2022/05/07 10:52:56;;;;;;;2.47;1.40;;;;;;;26.25;26.70;100833.75;5093981;28;20606;-77
2022/05/07 10:55:26;;;;;;;2.72;1.90;;;;;;;26.59;25.21;100830.69;5092332;28;20036;-77
2022/05/07 10:57:52;;;;;;;5.45;1.33;;;;;;;26.44;25.62;100825.16;5093989;28;20043;-76
2022/05/07 11:00:23;;;;;;;3.03;1.30;;;;;;;26.96;24.98;100829.75;5094246;28;20028;-75
2022/05/07 11:02:56;;;;;;;3.15;1.55;;;;;;;27.31;26.61;100826.34;5093663;28;20469;-77
2022/05/07 11:05:35;;;;;;;5.18;1.38;;;;;;;27.54;24.42;100823.09;5094404;28;20036;-77
2022/05/07 11:08:02;;;;;;;2.53;1.27;;;;;;;27.19;24.09;100812.94;5095093;28;20089;-78
2022/05/07 11:10:30;;;;;;;2.28;1.30;;;;;;;26.68;23.57;100814.63;5093832;28;20067;-78
2022/05/07 11:13:09;;;;;;;3.88;1.85;;;;;;;27.08;23.75;100818.63;5093832;28;20470;-76
2022/05/07 11:15:35;;;;;;;4.97;1.77;;;;;;;27.74;23.99;100810.56;5095872;28;20417;-77
2022/05/07 11:18:11;;;;;;;5.03;1.90;;;;;;;27.22;24.15;100809.63;5094299;28;20032;-75
2022/05/07 11:20:38;;;;;;;2.47;1.67;;;;;;;27.30;23.99;100817.31;5093279;28;20040;-77
2022/05/07 11:23:03;;;;;;;;;;;;;;;27.70;23.06;100793.84;5094119;28;20085;-77
2022/05/07 11:25:30;;;;;;;2.60;1.67;;;;;;;27.75;23.45;100801.25;5095490;28;19920;-78
2022/05/07 11:27:57;;;;;;;2.65;1.67;;;;;;;27.34;24.55;100812.13;5097442;28;20074;-78
2022/05/07 11:30:24;;;;;;;3.28;1.80;;;;;;;27.38;25.25;100806.94;5093647;28;20032;-77
2022/05/07 11:32:49;;;;;;;3.47;1.60;;;;;;;27.14;26.16;100809.34;5097465;28;20047;-78
2022/05/07 11:35:15;;;;;;;3.08;1.67;;;;;;;26.99;26.42;100804.63;5098186;28;20110;-77
2022/05/07 11:37:45;;;;;;;4.07;1.85;;;;;;;26.63;27.11;100809.13;5096842;28;20538;-75
2022/05/07 11:40:13;;;;;;;3.38;1.65;;;;;;;26.63;28.01;100801.75;5093012;28;20039;-77
2022/05/07 11:42:47;;;;;;;4.00;1.88;;;;;;;26.83;25.94;100795.56;5092857;28;20523;-76
2022/05/07 11:45:31;;;;;;;3.25;1.80;;;;;;;27.01;27.24;100791.53;5092362;28;20036;-75
2022/05/07 11:47:58;;;;;;;2.75;1.80;;;;;;;27.40;25.69;100796.56;5094693;28;20035;-76
2022/05/07 11:50:41;;;;;;;2.35;1.77;;;;;;;27.73;26.25;100801.53;5094050;28;20036;-75
2022/05/07 11:53:10;;;;;;;4.40;2.38;;;;;;;27.53;25.45;100793.28;5096491;28;20032;-76
2022/05/07 11:55:36;;;;;;;4.45;1.73;;;;;;;28.27;24.87;100791.88;5092960;28;20148;-76
2022/05/07 11:58:18;;;;;;;2.83;1.77;;;;;;;28.47;24.68;100785.53;5092902;28;20060;-78
2022/05/07 12:00:45;;;;;;;2.85;1.75;;;;;;;28.08;25.31;100781.50;5075212;28;20500;-73
2022/05/07 12:03:11;;;;;;;3.60;1.75;;;;;;;27.05;26.72;100779.78;5092128;28;20827;-73
2022/05/07 12:05:48;;;;;;;3.13;2.00;;;;;;;27.84;26.36;100778.53;5092031;28;20492;-74
2022/05/07 12:08:17;;;;;;;;;;;;;;;27.17;27.14;100774.06;5092519;28;20027;-74
2022/05/07 12:10:44;;;;;;;5.43;3.13;;;;;;;26.86;28.13;100777.78;5091874;28;19923;-74
2022/05/07 12:13:10;;;;;;;7.88;2.90;;;;;;;26.06;28.11;100777.94;5092387;28;20055;-74
2022/05/07 12:18:23;;;;;;;3.30;2.70;;;;;;;26.16;28.98;100780.72;5092792;28;20036;-75
2022/05/07 12:20:49;;;;;;;3.50;2.50;;;;;;;26.05;28.50;100775.47;5092070;28;20024;-77
2022/05/07 12:31:25;;;;;;;4.28;2.40;;;;;;;24.23;30.92;100756.91;5093353;28;20036;-77
2022/05/07 12:33:51;;;;;;;9.93;4.53;;;;;;;24.43;32.56;100773.53;5093629;28;20031;-78
2022/05/07 12:36:16;;;;;;;3.78;2.20;;;;;;;24.89;32.45;100768.66;5092207;28;20100;-74
2022/05/07 12:38:43;;;;;;;3.35;2.08;;;;;;;25.65;31.70;100763.16;5091949;28;20118;-77
2022/05/07 12:41:08;;;;;;;9.30;3.13;;;;;;;26.32;30.81;100758.97;5091148;28;20502;-75
2022/05/07 12:43:34;;;;;;;5.97;2.53;;;;;;;26.22;29.47;100760.56;5093056;28;20128;-75
2022/05/07 12:46:01;;;;;;;3.40;2.42;;;;;;;26.38;28.82;100745.06;5095639;28;20043;-72
2022/05/07 12:48:27;;;;;;;5.30;2.70;;;;;;;26.75;31.98;100750.44;5095719;28;20032;-75
2022/05/07 12:50:52;;;;;;;4.13;2.45;;;;;;;26.46;29.08;100757.44;5095566;28;20040;-75
2022/05/07 12:53:18;;;;;;;4.75;2.20;;;;;;;26.26;30.05;100752.66;5095381;28;20069;-73
2022/05/07 12:55:44;;;;;;;5.47;2.28;;;;;;;25.36;29.71;100751.69;5095514;28;20097;-75
2022/05/07 12:58:11;;;;;;;2.50;1.90;;;;;;;25.86;29.72;100747.78;5095514;28;20059;-74
2022/05/07 13:00:38;;;;;;;3.63;2.30;;;;;;;25.90;31.27;100752.44;5095424;28;20046;-75
2022/05/07 13:03:03;;;;;;;;;;;;;;;27.09;30.00;100741.00;5094108;28;20101;-74
2022/05/07 13:05:33;;;;;;;7.47;3.13;;;;;;;26.39;29.69;100745.91;5094203;28;20003;-75
2022/05/07 13:08:00;;;;;;;4.25;2.28;;;;;;;26.82;28.07;100738.44;5095546;28;20036;-75
2022/05/07 13:10:28;;;;;;;3.58;2.58;;;;;;;27.39;27.62;100737.47;5095275;28;20043;-75
2022/05/07 13:12:53;;;;;;;7.50;4.10;;;;;;;26.17;28.59;100738.69;5095142;28;20032;-74
2022/05/07 13:15:19;;;;;;;7.70;3.20;;;;;;;25.32;29.65;100729.59;5095242;28;20030;-74
2022/05/07 13:17:44;;;;;;;7.60;5.68;;;;;;;25.43;30.17;100734.06;5095191;28;20385;-73
2022/05/07 13:20:10;;;;;;;4.07;2.90;;;;;;;24.88;30.03;100735.13;5094995;28;20078;-73
2022/05/07 13:22:38;;;;;;;4.28;2.65;;;;;;;24.59;31.47;100731.00;5095335;28;20028;-74
2022/05/07 13:25:04;;;;;;;;;;;;;;;23.93;32.42;100732.78;5095479;28;20031;-74
2022/05/07 13:27:30;;;;;;;5.80;2.47;;;;;;;23.96;33.91;100724.97;5095031;28;20383;-73
2022/05/07 13:29:56;;;;;;;4.30;2.40;;;;;;;23.43;33.70;100720.84;5095229;28;20032;-74
2022/05/07 13:32:23;;;;;;;3.45;2.30;;;;;;;23.69;34.09;100713.13;5094708;28;20123;-73
2022/05/07 13:34:48;;;;;;;7.15;3.08;;;;;;;23.97;31.94;100709.47;5095004;28;20059;-74
2022/05/07 13:37:14;;;;;;;4.15;2.30;;;;;;;24.05;31.96;100715.28;5094872;28;20515;-74
2022/05/07 13:39:39;;;;;;;4.20;2.33;;;;;;;24.12;31.86;100706.13;5094856;28;20085;-74
2022/05/07 13:42:05;;;;;;;5.43;2.50;;;;;;;24.37;31.48;100698.31;5094452;28;20040;-73
2022/05/07 13:44:32;;;;;;;4.35;2.90;;;;;;;24.26;31.72;100701.97;5093729;28;20063;-73
2022/05/07 13:46:58;;;;;;;5.47;3.13;;;;;;;24.38;32.22;100702.69;5094757;28;20460;-75
2022/05/07 13:49:23;;;;;;;4.63;2.80;;;;;;;24.25;32.16;100694.84;5093373;28;20040;-74
2022/05/07 13:51:49;;;;;;;5.05;2.50;;;;;;;23.96;32.39;100708.63;5094336;28;20098;-74
2022/05/07 13:54:15;;;;;;;4.20;2.35;;;;;;;23.90;32.04;100701.47;5094054;28;20044;-75
2022/05/07 13:56:41;;;;;;;4.57;2.53;;;;;;;23.39;33.21;100694.41;5093164;28;20047;-74
2022/05/07 13:59:07;;;;;;;5.75;2.63;;;;;;;23.59;32.48;100691.19;5094410;28;20040;-75
2022/05/07 14:01:32;;;;;;;3.67;2.63;;;;;;;23.69;32.53;100696.81;5094091;28;20060;-74
2022/05/07 14:03:58;;;;;;;5.85;3.33;;;;;;;23.67;32.97;100697.06;5094550;28;20117;-74
2022/05/07 14:06:24;;;;;;;5.85;2.70;;;;;;;23.59;32.73;100691.19;5094432;28;20032;-73
2022/05/07 14:08:50;;;;;;;3.20;2.35;;;;;;;23.53;32.92;100688.38;5094346;28;20042;-74
2022/05/07 14:11:16;;;;;;;3.38;2.63;;;;;;;23.45;32.98;100693.41;5094141;28;20048;-73
2022/05/07 14:13:42;;;;;;;3.95;2.30;;;;;;;23.33;32.95;100688.06;5093942;28;20086;-73
2022/05/07 14:16:08;;;;;;;6.35;2.80;;;;;;;23.26;33.13;100681.97;5094021;28;20118;-75
2022/05/07 14:18:35;;;;;;;5.53;1.98;;;;;;;23.30;32.83;100666.81;5094029;28;20040;-75
2022/05/07 14:21:01;;;;;;;4.13;2.40;;;;;;;23.14;36.82;100675.78;5093849;28;20397;-75
2022/05/07 14:23:27;;;;;;;3.17;2.30;;;;;;;23.29;32.92;100670.63;5093562;28;20040;-74
2022/05/07 14:25:52;;;;;;;5.43;3.33;;;;;;;23.35;32.77;100668.81;5093867;28;20047;-74
2022/05/07 14:28:18;;;;;;;7.18;2.67;;;;;;;23.39;32.65;100665.31;5092707;28;20114;-75
2022/05/07 14:30:44;;;;;;;6.18;2.42;;;;;;;23.50;32.92;100666.31;5093669;28;20034;-75
2022/05/07 14:33:10;;;;;;;4.32;2.80;;;;;;;23.43;34.19;100665.66;5092157;28;20109;-76
2022/05/07 14:35:36;;;;;;;3.78;2.33;;;;;;;23.43;32.52;100654.78;5093661;28;20028;-75
2022/05/07 14:38:02;;;;;;;4.15;2.38;;;;;;;23.40;32.39;100666.97;5093779;28;20519;-74
2022/05/07 14:40:34;;;;;;;3.60;1.98;;;;;;;23.28;32.57;100653.50;5092401;28;20131;-75
2022/05/07 14:43:04;;;;;;;4.45;2.20;;;;;;;23.10;33.16;100661.88;5091067;28;20035;-73
2022/05/07 14:45:30;;;;;;;3.63;2.03;;;;;;;22.97;32.29;100645.91;5093037;28;20400;-74
2022/05/07 14:47:57;;;;;;;4.03;2.00;;;;;;;22.90;33.99;100656.91;5093455;28;20040;-75
2022/05/07 14:50:23;;;;;;;3.17;1.80;;;;;;;22.89;33.32;100649.84;5092392;28;20056;-73
2022/05/07 14:52:54;;;;;;;2.63;2.00;;;;;;;22.87;33.10;100648.41;5092834;28;20032;-72
2022/05/07 14:55:20;;;;;;;4.70;2.38;;;;;;;22.73;33.24;100648.69;5093166;28;20128;-73
2022/05/07 14:57:46;;;;;;;3.15;1.92;;;;;;;22.65;33.56;100640.94;5093335;28;20400;-72
2022/05/07 15:00:13;;;;;;;7.60;5.22;;;;;;;22.56;33.38;100639.69;5093346;28;20031;-75
2022/05/07 15:02:42;;;;;;;4.53;2.10;;;;;;;22.69;32.35;100641.25;5093007;28;20032;-73
2022/05/07 15:05:09;;;;;;;2.65;2.08;;;;;;;22.74;33.14;100647.63;5092113;28;20043;-73
2022/05/07 15:07:36;;;;;;;10.90;2.55;;;;;;;22.48;34.23;100638.16;5093062;28;20020;-73
2022/05/07 15:12:50;;;;;;;3.42;2.08;;;;;;;22.66;32.51;100633.63;5092552;28;20568;-74
2022/05/07 15:15:16;;;;;;;3.88;2.08;;;;;;;22.66;32.43;100634.44;5091596;28;20044;-76
2022/05/07 15:17:43;;;;;;;5.78;2.78;;;;;;;22.71;33.67;100631.00;5093064;28;20032;-74
2022/05/07 15:20:09;;;;;;;6.15;2.38;;;;;;;22.81;34.51;100625.75;5093370;28;20497;-78
2022/05/07 15:22:34;;;;;;;3.88;2.47;;;;;;;22.60;33.70;100616.41;5093677;28;20412;-73
2022/05/07 15:25:00;;;;;;;7.45;2.13;;;;;;;22.65;32.63;100621.13;5093024;28;20184;-77
2022/05/07 15:27:25;;;;;;;3.58;2.80;;;;;;;22.58;33.51;100625.88;5092948;28;20042;-72
2022/05/07 15:29:52;;;;;;;3.33;2.00;;;;;;;22.68;34.40;100624.16;5093193;28;20040;-76
2022/05/07 15:37:46;;;;;;;2.67;2.10;;;;;;;22.62;33.23;100633.28;5077218;28;20032;-76
2022/05/07 15:40:12;;;;;;;4.57;2.38;;;;;;;22.52;33.06;100637.69;5092953;28;20155;-77
2022/05/07 15:42:37;;;;;;;2.28;1.70;;;;;;;22.50;33.21;100629.81;5092296;28;20036;-77
2022/05/07 15:45:07;;;;;;;5.20;3.47;;;;;;;22.32;33.62;100625.38;5091681;28;20035;-77
2022/05/07 15:47:33;;;;;;;7.45;2.67;;;;;;;22.19;34.04;100634.63;5092839;28;20408;-76
2022/05/07 15:49:58;;;;;;;3.83;2.15;;;;;;;22.14;33.66;100639.13;5092522;28;20082;-75
2022/05/07 15:52:24;;;;;;;2.95;2.30;;;;;;;22.18;33.49;100632.16;5091851;28;20071;-76
2022/05/07 15:54:49;;;;;;;5.63;2.00;;;;;;;22.11;34.30;100631.47;5092499;28;20038;-76
2022/05/07 15:57:15;;;;;;;3.05;1.90;;;;;;;22.03;32.65;100629.09;5092289;28;20078;-76
2022/05/07 15:59:40;;;;;;;3.78;2.10;;;;;;;22.17;33.40;100627.81;5090942;28;20036;-77
2022/05/07 16:02:06;;;;;;;2.22;1.70;;;;;;;22.19;33.85;100628.38;5092154;28;20024;-77
2022/05/07 16:04:32;;;;;;;10.45;2.33;;;;;;;22.23;34.10;100621.41;5092644;28;20074;-77
2022/05/07 16:06:59;;;;;;;4.05;1.85;;;;;;;22.25;33.33;100613.03;5092099;28;20074;-78
2022/05/07 16:09:25;;;;;;;4.75;3.33;;;;;;;22.19;33.91;100623.78;5092558;28;20213;-76
2022/05/07 16:11:50;;;;;;;7.18;2.78;;;;;;;22.17;34.38;100619.66;5091879;28;20047;-76
2022/05/07 16:14:16;;;;;;;4.10;2.00;;;;;;;22.20;33.99;100614.56;5091913;28;20115;-76
2022/05/07 16:16:41;;;;;;;6.10;2.55;;;;;;;22.02;34.02;100611.16;5092411;28;20477;-76
2022/05/07 16:19:08;;;;;;;4.88;3.38;;;;;;;21.92;34.55;100609.91;5092469;28;20036;-75
2022/05/07 16:21:33;;;;;;;7.43;2.40;;;;;;;22.01;34.02;100604.94;5091647;28;20024;-76
2022/05/07 16:26:43;;;;;;;5.18;2.55;;;;;;;22.10;34.00;100613.53;5091824;28;20038;-76
2022/05/07 16:29:09;;;;;;;4.50;1.90;;;;;;;21.97;33.95;100609.16;5091810;28;20409;-76
2022/05/07 16:31:34;;;;;;;3.13;2.03;;;;;;;21.97;33.68;100605.63;5090831;28;20031;-77
2022/05/07 16:34:03;;;;;;;5.45;2.22;;;;;;;21.98;33.94;100607.31;5090582;28;20071;-77
2022/05/07 16:36:28;;;;;;;3.90;2.28;;;;;;;22.00;34.07;100606.00;5092394;28;20043;-77
2022/05/07 16:38:54;;;;;;;5.28;2.72;;;;;;;21.97;34.40;100608.34;5093464;28;20036;-79